Time;durP1;ratioP1;P1;durP2;ratioP2;P2;SDS_P1;SDS_P2;PMS_P1;PMS_P2;Temp;Humidity;BMP_temperature;BMP_pressure;BME280_temperature;BME280_humidity;BME280_pressure;Samples;Min_cycle;Max_cycle;Signal;HPM_P1;HPM_P2
2022/07/11 00:01:25;;;;;;;59.10;2.97;;;;;;;;;;5090982;28;20620;-65
2022/07/11 00:03:53;;;;;;;59.00;3.43;;;;;;;;;;5090794;28;20508;-65
2022/07/11 00:06:20;;;;;;;59.60;3.50;;;;;;;;;;5091413;28;20489;-65
2022/07/11 00:08:47;;;;;;;59.10;3.30;;;;;;;;;;5091328;28;20484;-65
2022/07/11 00:11:14;;;;;;;60.17;3.70;;;;;;;;;;5089714;28;20452;-65
2022/07/11 00:13:41;;;;;;;61.07;3.30;;;;;;;;;;5094798;28;20468;-64
2022/07/11 00:16:10;;;;;;;60.50;3.40;;;;;;;;;;5094996;28;20463;-65
2022/07/11 00:18:37;;;;;;;64.20;4.17;;;;;;;;;;5094997;28;20452;-65
2022/07/11 00:21:04;;;;;;;59.87;2.90;;;;;;;;;;5094851;28;20452;-64
2022/07/11 00:23:31;;;;;;;58.97;3.30;;;;;;;;;;5094451;28;20487;-65
2022/07/11 00:25:58;;;;;;;62.37;3.57;;;;;;;;;;5094827;28;20481;-65
2022/07/11 00:28:26;;;;;;;58.70;2.80;;;;;;;;;;5094491;28;20452;-65
2022/07/11 00:30:53;;;;;;;62.90;3.50;;;;;;;;;;5095080;28;20477;-65
2022/07/11 00:33:22;;;;;;;62.83;3.50;;;;;;;;;;5094467;28;20523;-65
2022/07/11 00:35:49;;;;;;;60.33;3.37;;;;;;;;;;5095206;28;20449;-64
2022/07/11 00:38:16;;;;;;;61.20;3.20;;;;;;;;;;5094363;28;20452;-64
2022/07/11 00:40:43;;;;;;;60.10;3.07;;;;;;;;;;5094638;28;20454;-65
2022/07/11 00:43:10;;;;;;;58.67;3.10;;;;;;;;;;5091234;28;20447;-64
2022/07/11 00:45:37;;;;;;;59.40;3.40;;;;;;;;;;5094740;28;20487;-65
2022/07/11 00:48:05;;;;;;;59.20;3.40;;;;;;;;;;5094123;28;20449;-65
2022/07/11 00:50:33;;;;;;;63.90;3.20;;;;;;;;;;5094558;28;20449;-65
2022/07/11 00:53:00;;;;;;;59.77;3.43;;;;;;;;;;5094282;28;20453;-65
2022/07/11 00:55:28;;;;;;;59.20;3.23;;;;;;;;;;5094246;28;20468;-65
2022/07/11 00:57:56;;;;;;;58.97;3.30;;;;;;;;;;5094320;28;20456;-65
2022/07/11 01:00:24;;;;;;;58.67;3.20;;;;;;;;;;5094233;28;20464;-65
2022/07/11 01:02:51;;;;;;;63.67;3.47;;;;;;;;;;5094155;28;20535;-65
2022/07/11 01:05:18;;;;;;;58.80;3.33;;;;;;;;;;5093665;28;20499;-66
2022/07/11 01:07:47;;;;;;;58.57;3.00;;;;;;;;;;5094452;28;20984;-65
2022/07/11 01:10:14;;;;;;;60.50;3.60;;;;;;;;;;5093867;28;20448;-66
2022/07/11 01:12:41;;;;;;;59.60;3.73;;;;;;;;;;5093912;28;20447;-65
2022/07/11 01:15:09;;;;;;;59.10;3.10;;;;;;;;;;5091620;28;21822;-65
2022/07/11 01:17:37;;;;;;;59.00;3.17;;;;;;;;;;5093739;28;20462;-65
2022/07/11 01:20:04;;;;;;;58.93;3.13;;;;;;;;;;5094089;28;20487;-65
2022/07/11 01:22:33;;;;;;;58.60;3.23;;;;;;;;;;5093440;28;20449;-65
2022/07/11 01:25:01;;;;;;;58.80;3.20;;;;;;;;;;5093199;28;20471;-65
2022/07/11 01:27:29;;;;;;;59.30;3.30;;;;;;;;;;5093618;28;20489;-65
2022/07/11 01:29:56;;;;;;;59.37;3.30;;;;;;;;;;5093671;28;20449;-65
2022/07/11 01:32:23;;;;;;;58.97;3.50;;;;;;;;;;5093686;28;20449;-66
2022/07/11 01:34:51;;;;;;;60.07;3.60;;;;;;;;;;5093449;28;20562;-65
2022/07/11 01:37:18;;;;;;;58.60;3.10;;;;;;;;;;5093147;28;20544;-66
2022/07/11 01:39:45;;;;;;;59.17;3.47;;;;;;;;;;5093472;28;20448;-65
2022/07/11 01:42:14;;;;;;;59.07;3.63;;;;;;;;;;5093533;28;20567;-65
2022/07/11 01:44:41;;;;;;;58.63;2.90;;;;;;;;;;5089898;28;20962;-65
2022/07/11 01:47:08;;;;;;;59.20;3.63;;;;;;;;;;5093344;28;20491;-65
2022/07/11 01:49:35;;;;;;;59.40;3.43;;;;;;;;;;5091296;28;20453;-66
2022/07/11 01:52:02;;;;;;;60.07;3.43;;;;;;;;;;5093461;28;20450;-65
2022/07/11 01:54:29;;;;;;;59.87;3.37;;;;;;;;;;5093073;28;20472;-65
2022/07/11 01:56:56;;;;;;;58.73;3.00;;;;;;;;;;5092977;28;20500;-65
2022/07/11 01:59:25;;;;;;;60.00;3.10;;;;;;;;;;5093200;28;20445;-65
2022/07/11 02:01:52;;;;;;;59.83;3.10;;;;;;;;;;5093389;28;20830;-65
2022/07/11 02:04:20;;;;;;;59.67;3.30;;;;;;;;;;5092578;28;20490;-65
2022/07/11 02:06:47;;;;;;;59.47;3.20;;;;;;;;;;5093004;28;20491;-63
2022/07/11 02:09:14;;;;;;;59.00;3.20;;;;;;;;;;5092738;28;20447;-65
2022/07/11 02:11:41;;;;;;;58.87;3.30;;;;;;;;;;5092857;28;20451;-65
2022/07/11 02:14:09;;;;;;;59.97;3.20;;;;;;;;;;5092762;28;21045;-66
2022/07/11 02:16:37;;;;;;;60.63;3.67;;;;;;;;;;5093015;28;20449;-66
2022/07/11 02:19:06;;;;;;;60.57;3.50;;;;;;;;;;5092312;28;20452;-66
2022/07/11 02:21:33;;;;;;;58.90;3.17;;;;;;;;;;5090770;28;20467;-63
2022/07/11 02:24:00;;;;;;;58.67;3.07;;;;;;;;;;5092332;28;20475;-63
2022/07/11 02:26:27;;;;;;;59.30;3.00;;;;;;;;;;5092149;28;20488;-66
2022/07/11 02:28:54;;;;;;;60.97;3.20;;;;;;;;;;5092525;28;20445;-66
2022/07/11 02:31:22;;;;;;;58.73;3.23;;;;;;;;;;5092767;28;20798;-65
2022/07/11 02:33:50;;;;;;;59.00;3.10;;;;;;;;;;5091741;28;20488;-66
2022/07/11 02:36:17;;;;;;;60.30;4.33;;;;;;;;;;5092530;28;20454;-65
2022/07/11 02:38:45;;;;;;;61.67;3.37;;;;;;;;;;5091995;28;20839;-66
2022/07/11 02:41:12;;;;;;;59.13;3.27;;;;;;;;;;5092680;28;20449;-65
2022/07/11 02:43:39;;;;;;;58.70;3.20;;;;;;;;;;5092206;28;20471;-66
2022/07/11 02:46:06;;;;;;;61.30;3.43;;;;;;;;;;5091878;28;20492;-65
2022/07/11 02:48:33;;;;;;;58.97;3.23;;;;;;;;;;5092509;28;20447;-65
2022/07/11 02:51:02;;;;;;;58.57;3.50;;;;;;;;;;5092000;28;20551;-65
2022/07/11 02:53:29;;;;;;;58.87;3.30;;;;;;;;;;5089934;28;20472;-65
2022/07/11 02:55:56;;;;;;;60.17;3.27;;;;;;;;;;5092449;28;20467;-66
2022/07/11 02:58:23;;;;;;;59.40;3.30;;;;;;;;;;5091804;28;20454;-64
2022/07/11 03:00:51;;;;;;;59.57;3.53;;;;;;;;;;5092013;28;20998;-65
2022/07/11 03:03:18;;;;;;;60.57;3.40;;;;;;;;;;5091877;28;20472;-66
2022/07/11 03:05:45;;;;;;;58.97;3.73;;;;;;;;;;5091318;28;20452;-65
2022/07/11 03:08:14;;;;;;;59.60;3.40;;;;;;;;;;5091859;28;20475;-65
2022/07/11 03:10:41;;;;;;;59.30;3.73;;;;;;;;;;5092055;28;20478;-65
2022/07/11 03:13:08;;;;;;;59.50;3.50;;;;;;;;;;5091966;28;20445;-65
2022/07/11 03:15:35;;;;;;;59.20;3.40;;;;;;;;;;5091929;28;20459;-66
2022/07/11 03:18:02;;;;;;;59.37;3.37;;;;;;;;;;5091560;28;20451;-65
2022/07/11 03:20:29;;;;;;;59.10;3.13;;;;;;;;;;5091583;28;20458;-63
2022/07/11 03:22:56;;;;;;;59.17;3.37;;;;;;;;;;5091726;28;20551;-65
2022/07/11 03:25:25;;;;;;;59.20;3.37;;;;;;;;;;5089489;28;20449;-65
2022/07/11 03:27:52;;;;;;;58.57;2.90;;;;;;;;;;5090958;28;20515;-66
2022/07/11 03:30:19;;;;;;;59.90;4.07;;;;;;;;;;5091485;28;20822;-63
2022/07/11 03:32:47;;;;;;;58.80;3.10;;;;;;;;;;5091455;28;20451;-63
2022/07/11 03:37:59;;;;;;;61.13;3.17;;;;;;;;;;5091736;28;20434;-66
2022/07/11 03:40:27;;;;;;;59.07;3.20;;;;;;;;;;5091695;28;20810;-65
2022/07/11 03:42:55;;;;;;;59.67;3.00;;;;;;;;;;5091588;28;20452;-66
2022/07/11 03:45:22;;;;;;;59.20;3.27;;;;;;;;;;5091376;28;20448;-66
2022/07/11 03:47:49;;;;;;;59.27;3.27;;;;;;;;;;5094303;28;20824;-66
2022/07/11 03:50:16;;;;;;;58.67;3.10;;;;;;;;;;5095755;28;20459;-65
2022/07/11 03:52:43;;;;;;;58.80;3.00;;;;;;;;;;5095465;28;20452;-65
2022/07/11 03:55:10;;;;;;;59.17;3.37;;;;;;;;;;5095942;28;20481;-66
2022/07/11 03:57:39;;;;;;;58.70;3.13;;;;;;;;;;5093315;28;20445;-63
2022/07/11 04:00:07;;;;;;;59.30;3.60;;;;;;;;;;5095336;28;20942;-66
2022/07/11 04:02:35;;;;;;;58.97;3.10;;;;;;;;;;5095586;28;20494;-64
2022/07/11 04:05:02;;;;;;;60.60;3.00;;;;;;;;;;5095409;28;20473;-65
2022/07/11 04:07:29;;;;;;;58.77;3.30;;;;;;;;;;5094519;28;20924;-65
2022/07/11 04:09:56;;;;;;;58.80;3.00;;;;;;;;;;5095391;28;20442;-65
2022/07/11 04:12:23;;;;;;;58.77;2.80;;;;;;;;;;5095029;28;20446;-63
2022/07/11 04:14:52;;;;;;;58.57;3.00;;;;;;;;;;5095349;28;20475;-66
2022/07/11 04:17:19;;;;;;;62.80;3.77;;;;;;;;;;5095026;28;20446;-66
2022/07/11 04:19:46;;;;;;;59.20;3.50;;;;;;;;;;5095226;28;20826;-65
2022/07/11 04:22:13;;;;;;;61.77;3.67;;;;;;;;;;5095175;28;20451;-66
2022/07/11 04:24:41;;;;;;;59.07;3.10;;;;;;;;;;5095420;28;20819;-66
2022/07/11 04:27:08;;;;;;;60.00;3.13;;;;;;;;;;5093763;28;20484;-65
2022/07/11 04:29:35;;;;;;;60.57;3.80;;;;;;;;;;5092616;28;20469;-65
2022/07/11 04:32:04;;;;;;;58.77;3.20;;;;;;;;;;5095065;28;20444;-66
2022/07/11 04:34:31;;;;;;;58.77;3.20;;;;;;;;;;5094605;28;20482;-66
2022/07/11 04:36:58;;;;;;;60.00;3.60;;;;;;;;;;5094785;28;20449;-66
2022/07/11 04:39:25;;;;;;;59.30;3.30;;;;;;;;;;5094353;28;20447;-65
2022/07/11 04:41:52;;;;;;;58.90;3.43;;;;;;;;;;5094879;28;20453;-65
2022/07/11 04:44:19;;;;;;;58.87;3.10;;;;;;;;;;5094853;28;20466;-65
2022/07/11 04:46:46;;;;;;;58.60;3.43;;;;;;;;;;5094403;28;21004;-65
2022/07/11 04:49:15;;;;;;;58.80;3.20;;;;;;;;;;5094015;28;20459;-65
2022/07/11 04:51:42;;;;;;;60.03;3.40;;;;;;;;;;5094473;28;20453;-65
2022/07/11 04:54:09;;;;;;;58.67;2.80;;;;;;;;;;5094152;28;20476;-65
2022/07/11 04:56:37;;;;;;;59.17;3.50;;;;;;;;;;5094090;28;20936;-66
2022/07/11 04:59:04;;;;;;;59.50;3.50;;;;;;;;;;5093632;28;20457;-65
2022/07/11 05:01:31;;;;;;;59.03;3.03;;;;;;;;;;5092225;28;20459;-65
2022/07/11 05:03:59;;;;;;;59.50;3.47;;;;;;;;;;5094220;28;20474;-65
2022/07/11 05:06:27;;;;;;;58.80;3.10;;;;;;;;;;5094094;28;20444;-65
2022/07/11 05:08:55;;;;;;;59.93;3.27;;;;;;;;;;5093487;28;20483;-66
2022/07/11 05:11:23;;;;;;;58.63;2.90;;;;;;;;;;5094258;28;20511;-66
2022/07/11 05:13:50;;;;;;;58.83;3.20;;;;;;;;;;5094062;28;20495;-62
2022/07/11 05:16:17;;;;;;;58.97;3.17;;;;;;;;;;5094063;28;20460;-63
2022/07/11 05:18:44;;;;;;;59.13;3.70;;;;;;;;;;5093804;28;20447;-65
2022/07/11 05:21:11;;;;;;;59.57;3.53;;;;;;;;;;5093763;28;20834;-66
2022/07/11 05:23:40;;;;;;;59.20;3.10;;;;;;;;;;5094146;28;20470;-65
2022/07/11 05:26:07;;;;;;;59.20;3.50;;;;;;;;;;5093733;28;20480;-66
2022/07/11 05:28:35;;;;;;;59.30;3.27;;;;;;;;;;5093068;28;20515;-65
2022/07/11 05:31:02;;;;;;;58.90;3.50;;;;;;;;;;5093526;28;20963;-65
2022/07/11 05:33:29;;;;;;;59.47;3.53;;;;;;;;;;5092825;28;20899;-66
2022/07/11 05:35:56;;;;;;;58.97;3.80;;;;;;;;;;5093753;28;20537;-66
2022/07/11 05:38:23;;;;;;;60.20;3.50;;;;;;;;;;5093607;28;20449;-65
2022/07/11 05:40:52;;;;;;;62.73;3.67;;;;;;;;;;5093859;28;20450;-64
2022/07/11 05:43:19;;;;;;;59.17;3.53;;;;;;;;;;5093754;28;20472;-64
2022/07/11 05:45:46;;;;;;;58.67;3.33;;;;;;;;;;5093556;28;20453;-65
2022/07/11 05:48:13;;;;;;;59.00;3.13;;;;;;;;;;5092782;28;20800;-65
2022/07/11 05:50:40;;;;;;;59.33;3.60;;;;;;;;;;5092431;28;20453;-65
2022/07/11 05:53:09;;;;;;;58.73;3.00;;;;;;;;;;5092155;28;20457;-65
2022/07/11 05:55:36;;;;;;;59.17;3.30;;;;;;;;;;5093189;28;20494;-65
2022/07/11 05:58:04;;;;;;;60.50;3.43;;;;;;;;;;5093151;28;20434;-65
2022/07/11 06:00:32;;;;;;;58.90;3.50;;;;;;;;;;5093316;28;20935;-65
2022/07/11 06:02:59;;;;;;;58.90;3.50;;;;;;;;;;5092997;28;20450;-65
2022/07/11 06:05:26;;;;;;;59.10;3.50;;;;;;;;;;5093386;28;20530;-65
2022/07/11 06:10:39;;;;;;;59.13;3.53;;;;;;;;;;5092620;28;20429;-65
2022/07/11 06:13:07;;;;;;;60.40;3.87;;;;;;;;;;5093082;28;20877;-65
2022/07/11 06:15:34;;;;;;;59.37;3.73;;;;;;;;;;5093001;28;20454;-65
2022/07/11 06:18:01;;;;;;;58.57;3.53;;;;;;;;;;5092982;28;20442;-65
2022/07/11 06:20:29;;;;;;;59.07;3.60;;;;;;;;;;5093157;28;20450;-65
2022/07/11 06:22:56;;;;;;;59.40;3.33;;;;;;;;;;5092809;28;20450;-65
2022/07/11 06:25:23;;;;;;;59.77;3.40;;;;;;;;;;5093007;28;20512;-65
2022/07/11 06:27:50;;;;;;;60.20;3.50;;;;;;;;;;5092522;28;20532;-65
2022/07/11 06:30:19;;;;;;;59.17;3.50;;;;;;;;;;5092780;28;20938;-65
2022/07/11 06:32:46;;;;;;;59.50;3.40;;;;;;;;;;5092892;28;20824;-65
2022/07/11 06:35:13;;;;;;;59.77;3.67;;;;;;;;;;5092802;28;20479;-65
2022/07/11 06:37:40;;;;;;;58.90;3.20;;;;;;;;;;5092536;28;20439;-65
2022/07/11 06:40:10;;;;;;;60.60;3.93;;;;;;;;;;5092702;28;20448;-65
2022/07/11 06:42:37;;;;;;;59.30;3.70;;;;;;;;;;5092562;28;20863;-65
2022/07/11 06:45:05;;;;;;;59.37;3.50;;;;;;;;;;5092507;28;20978;-65
2022/07/11 06:47:33;;;;;;;60.40;3.53;;;;;;;;;;5092108;28;20478;-65
2022/07/11 06:50:00;;;;;;;58.87;3.83;;;;;;;;;;5092549;28;20447;-65
2022/07/11 06:52:28;;;;;;;59.10;3.23;;;;;;;;;;5092401;28;20450;-65
2022/07/11 06:54:55;;;;;;;58.47;2.90;;;;;;;;;;5092123;28;20463;-65
2022/07/11 06:57:22;;;;;;;59.33;3.37;;;;;;;;;;5092369;28;20442;-65
2022/07/11 06:59:49;;;;;;;59.00;3.80;;;;;;;;;;5092289;28;20953;-65
2022/07/11 07:02:16;;;;;;;59.80;3.40;;;;;;;;;;5092587;28;20448;-65
2022/07/11 07:04:45;;;;;;;59.17;3.90;;;;;;;;;;5092217;28;20466;-65
2022/07/11 07:07:12;;;;;;;59.23;3.80;;;;;;;;;;5091738;28;21024;-65
2022/07/11 07:09:39;;;;;;;59.00;3.43;;;;;;;;;;5092011;28;20453;-65
2022/07/11 07:12:06;;;;;;;58.80;3.17;;;;;;;;;;5092345;28;20817;-65
2022/07/11 07:14:34;;;;;;;59.03;3.27;;;;;;;;;;5092138;28;20462;-65
2022/07/11 07:17:01;;;;;;;59.50;3.10;;;;;;;;;;5091974;28;20943;-65
2022/07/11 07:19:28;;;;;;;61.47;3.30;;;;;;;;;;5091894;28;20867;-65
2022/07/11 07:21:56;;;;;;;58.97;3.47;;;;;;;;;;5092163;28;20447;-65
2022/07/11 07:24:23;;;;;;;58.90;3.30;;;;;;;;;;5092024;28;20466;-65
2022/07/11 07:26:50;;;;;;;60.93;3.60;;;;;;;;;;5092082;28;20451;-65
2022/07/11 07:29:18;;;;;;;59.80;4.20;;;;;;;;;;5091892;28;20478;-65
2022/07/11 07:31:45;;;;;;;58.87;3.33;;;;;;;;;;5091937;28;20825;-65
2022/07/11 07:34:12;;;;;;;59.20;3.37;;;;;;;;;;5091617;28;20474;-65
2022/07/11 07:36:39;;;;;;;58.90;3.10;;;;;;;;;;5091666;28;20447;-65
2022/07/11 07:39:07;;;;;;;58.33;2.93;;;;;;;;;;5091674;28;20443;-65
2022/07/11 07:41:35;;;;;;;58.60;3.13;;;;;;;;;;5091881;28;20825;-65
2022/07/11 07:44:02;;;;;;;60.57;3.40;;;;;;;;;;5091676;28;20466;-65
2022/07/11 07:46:29;;;;;;;58.90;3.30;;;;;;;;;;5092152;28;20443;-65
2022/07/11 07:48:57;;;;;;;58.97;3.27;;;;;;;;;;5091317;28;20481;-65
2022/07/11 07:51:24;;;;;;;59.20;3.20;;;;;;;;;;5091605;28;20450;-65
2022/07/11 07:53:51;;;;;;;59.53;2.93;;;;;;;;;;5091475;28;20480;-65
2022/07/11 07:56:19;;;;;;;58.87;3.07;;;;;;;;;;5091780;28;20449;-65
2022/07/11 07:58:46;;;;;;;59.17;3.20;;;;;;;;;;5091559;28;20450;-65
2022/07/11 08:03:58;;;;;;;58.87;3.17;;;;;;;;;;5091448;28;20457;-65
2022/07/11 08:06:25;;;;;;;58.80;2.83;;;;;;;;;;5091539;28;20448;-65
2022/07/11 08:08:52;;;;;;;59.37;3.40;;;;;;;;;;5091239;28;20488;-65
2022/07/11 08:11:21;;;;;;;59.10;3.03;;;;;;;;;;5091403;28;20957;-65
2022/07/11 08:13:49;;;;;;;58.40;3.00;;;;;;;;;;5091474;28;20798;-65
2022/07/11 08:16:16;;;;;;;58.37;3.00;;;;;;;;;;5091343;28;20456;-65
2022/07/11 08:18:43;;;;;;;59.63;3.10;;;;;;;;;;5091375;28;20443;-65
2022/07/11 08:21:10;;;;;;;58.57;3.10;;;;;;;;;;5091561;28;20833;-65
2022/07/11 08:23:37;;;;;;;59.07;3.20;;;;;;;;;;5091428;28;20466;-65
2022/07/11 08:26:05;;;;;;;58.50;3.20;;;;;;;;;;5091522;28;20446;-65
2022/07/11 08:28:33;;;;;;;58.60;2.70;;;;;;;;;;5091060;28;20478;-65
2022/07/11 08:31:00;;;;;;;58.20;2.60;;;;;;;;;;5091249;28;20533;-65
2022/07/11 08:33:27;;;;;;;58.83;2.60;;;;;;;;;;5093940;28;20482;-65
2022/07/11 08:35:55;;;;;;;58.73;2.70;;;;;;;;;;5095263;28;20457;-65
2022/07/11 08:38:22;;;;;;;59.73;2.80;;;;;;;;;;5094849;28;20816;-63
2022/07/11 08:40:50;;;;;;;57.97;2.70;;;;;;;;;;5094926;28;20457;-63
2022/07/11 08:43:18;;;;;;;58.30;2.80;;;;;;;;;;5094693;28;20880;-63
2022/07/11 08:45:47;;;;;;;58.50;3.00;;;;;;;;;;5095074;28;20446;-65
2022/07/11 08:48:15;;;;;;;62.13;2.83;;;;;;;;;;5094606;28;20489;-63
2022/07/11 08:50:42;;;;;;;58.67;3.20;;;;;;;;;;5094973;28;20822;-65
2022/07/11 08:53:10;;;;;;;58.87;3.13;;;;;;;;;;5094591;28;20450;-65
2022/07/11 08:55:38;;;;;;;58.60;2.67;;;;;;;;;;5094616;28;20461;-63
2022/07/11 08:58:05;;;;;;;58.57;3.00;;;;;;;;;;5094289;28;20948;-63
2022/07/11 09:00:32;;;;;;;58.20;2.47;;;;;;;;;;5094750;28;20529;-66
2022/07/11 09:03:01;;;;;;;59.00;2.90;;;;;;;;;;5094366;28;20598;-66
2022/07/11 09:05:29;;;;;;;58.50;2.70;;;;;;;;;;5094598;28;20447;-63
2022/07/11 09:07:56;;;;;;;59.23;3.00;;;;;;;;;;5093962;28;20476;-63
2022/07/11 09:10:23;;;;;;;58.37;2.80;;;;;;;;;;5094291;28;20829;-64
2022/07/11 09:13:00;;;;;;;58.40;2.80;;;;;;;;;;5094532;28;20531;-64
2022/07/11 09:15:34;;;;;;;58.37;3.00;;;;;;;;;;5094635;28;20444;-64
2022/07/11 09:18:02;;;;;;;58.57;2.73;;;;;;;;;;5093919;28;20966;-64
2022/07/11 09:25:19;;;;;;;58.40;2.70;;;;;;;;;;5094097;28;20456;-64
2022/07/11 09:26:08;;;;;;;57.87;2.50;;;;;;;;;;5093971;28;20551;-64
2022/07/11 09:28:35;;;;;;;58.27;2.90;;;;;;;;;;5093762;28;20920;-64
2022/07/11 09:31:16;;;;;;;57.87;2.87;;;;;;;;;;5093794;28;20461;-64
2022/07/11 09:33:57;;;;;;;58.27;3.13;;;;;;;;;;5093845;28;20484;-64
2022/07/11 09:36:34;;;;;;;58.43;2.80;;;;;;;;;;5093880;28;20946;-64
2022/07/11 09:39:02;;;;;;;58.40;2.60;;;;;;;;;;5093575;28;20464;-64
2022/07/11 09:41:32;;;;;;;58.00;3.00;;;;;;;;;;5093688;28;20525;-64
2022/07/11 09:44:07;;;;;;;58.27;2.50;;;;;;;;;;5093756;28;20458;-65
2022/07/11 09:46:35;;;;;;;58.37;2.73;;;;;;;;;;5093877;28;20536;-64
2022/07/11 09:49:02;;;;;;;60.80;2.30;;;;;;;;;;5093354;28;20569;-64
2022/07/11 09:51:31;;;;;;;59.70;2.70;;;;;;;;;;5093703;28;20448;-65
2022/07/11 09:53:59;;;;;;;58.07;2.33;;;;;;;;;;5093340;28;20474;-65
2022/07/11 09:56:26;;;;;;;57.80;2.30;;;;;;;;;;5093369;28;20462;-65
2022/07/11 09:58:59;;;;;;;58.20;2.57;;;;;;;;;;5093054;28;20474;-65
2022/07/11 10:01:28;;;;;;;59.80;2.13;;;;;;;;;;5093628;28;20814;-65
2022/07/11 10:03:55;;;;;;;57.83;2.40;;;;;;;;;;5093301;28;20469;-65
2022/07/11 10:06:22;;;;;;;58.20;2.40;;;;;;;;;;5093256;28;20950;-65
2022/07/11 10:08:51;;;;;;;59.77;2.63;;;;;;;;;;5092779;28;20485;-65
2022/07/11 10:11:18;;;;;;;59.50;2.60;;;;;;;;;;5093460;28;20454;-65
2022/07/11 10:13:46;;;;;;;58.00;2.43;;;;;;;;;;5093129;28;20473;-65
2022/07/11 10:16:17;;;;;;;58.07;2.90;;;;;;;;;;5093252;28;20450;-65
2022/07/11 10:18:47;;;;;;;58.27;2.60;;;;;;;;;;5092953;28;20447;-65
2022/07/11 10:21:16;;;;;;;58.30;2.30;;;;;;;;;;5092967;28;20931;-65
2022/07/11 10:23:45;;;;;;;57.83;2.30;;;;;;;;;;5093014;28;20466;-65
2022/07/11 10:26:18;;;;;;;57.87;2.20;;;;;;;;;;5093134;28;20534;-65
2022/07/11 10:28:48;;;;;;;58.73;2.53;;;;;;;;;;5092602;28;20489;-65
2022/07/11 10:31:21;;;;;;;59.57;2.20;;;;;;;;;;5092770;28;20446;-65
2022/07/11 10:34:02;;;;;;;58.40;2.40;;;;;;;;;;5092369;28;20565;-65
2022/07/11 10:36:29;;;;;;;57.80;2.17;;;;;;;;;;5092853;28;20450;-65
2022/07/11 10:39:11;;;;;;;60.53;2.07;;;;;;;;;;5092599;28;20473;-65
2022/07/11 10:41:41;;;;;;;58.07;1.90;;;;;;;;;;5092692;28;20446;-65
2022/07/11 10:44:08;;;;;;;58.17;2.43;;;;;;;;;;5092258;28;20467;-65
2022/07/11 10:46:36;;;;;;;58.77;2.17;;;;;;;;;;5092767;28;20438;-65
2022/07/11 10:49:07;;;;;;;60.10;3.20;;;;;;;;;;5092295;28;20478;-65
2022/07/11 10:51:38;;;;;;;58.10;2.43;;;;;;;;;;5092496;28;20939;-65
2022/07/11 10:54:12;;;;;;;58.27;2.40;;;;;;;;;;5092333;28;20470;-65
2022/07/11 10:56:52;;;;;;;58.50;2.10;;;;;;;;;;5091786;28;20461;-65
2022/07/11 10:59:20;;;;;;;57.97;2.30;;;;;;;;;;5092336;28;20821;-65
2022/07/11 11:02:03;;;;;;;57.97;2.40;;;;;;;;;;5092293;28;20943;-65
2022/07/11 11:04:43;;;;;;;58.13;2.17;;;;;;;;;;5092129;28;20847;-65
2022/07/11 11:07:25;;;;;;;58.30;2.20;;;;;;;;;;5092094;28;20457;-65
2022/07/11 11:09:52;;;;;;;57.97;2.07;;;;;;;;;;5092008;28;20482;-65
2022/07/11 11:12:21;;;;;;;58.80;2.17;;;;;;;;;;5092169;28;20442;-65
2022/07/11 11:14:48;;;;;;;57.40;2.10;;;;;;;;;;5092188;28;20470;-65
2022/07/11 11:17:34;;;;;;;57.77;2.17;;;;;;;;;;5091786;28;20446;-65
2022/07/11 11:20:02;;;;;;;57.80;2.23;;;;;;;;;;5092245;28;20446;-65
2022/07/11 11:22:29;;;;;;;58.20;2.30;;;;;;;;;;5092079;28;20446;-65
2022/07/11 11:24:57;;;;;;;57.87;2.30;;;;;;;;;;5092168;28;20549;-65
2022/07/11 11:27:27;;;;;;;57.77;2.13;;;;;;;;;;5091766;28;20452;-65
2022/07/11 11:29:55;;;;;;;59.10;2.37;;;;;;;;;;5091816;28;20569;-65
2022/07/11 11:32:23;;;;;;;57.67;2.30;;;;;;;;;;5091968;28;20446;-65
2022/07/11 11:34:50;;;;;;;57.97;2.30;;;;;;;;;;5091788;28;20478;-65
2022/07/11 11:37:18;;;;;;;58.00;2.20;;;;;;;;;;5091682;28;20446;-65
2022/07/11 11:39:46;;;;;;;57.77;2.30;;;;;;;;;;5091793;28;20547;-65
2022/07/11 11:42:17;;;;;;;57.77;2.10;;;;;;;;;;5091815;28;20449;-65
2022/07/11 11:44:52;;;;;;;58.07;2.23;;;;;;;;;;5091630;28;20497;-63
2022/07/11 11:47:20;;;;;;;57.47;1.90;;;;;;;;;;5091699;28;20525;-63
2022/07/11 11:49:49;;;;;;;57.43;2.00;;;;;;;;;;5091743;28;20489;-64
2022/07/11 11:52:16;;;;;;;57.83;2.07;;;;;;;;;;5091662;28;20451;-64
2022/07/11 11:54:45;;;;;;;57.77;2.10;;;;;;;;;;5091582;28;20463;-65
2022/07/11 11:57:14;;;;;;;58.13;2.40;;;;;;;;;;5091253;28;20545;-64
2022/07/11 11:59:41;;;;;;;57.77;2.27;;;;;;;;;;5091655;28;20810;-64
2022/07/11 12:02:11;;;;;;;58.00;2.30;;;;;;;;;;5091606;28;20449;-64
2022/07/11 12:04:39;;;;;;;57.60;2.00;;;;;;;;;;5091676;28;20473;-64
2022/07/11 12:07:06;;;;;;;57.90;2.10;;;;;;;;;;5092090;28;20499;-65
2022/07/11 12:09:50;;;;;;;57.47;2.03;;;;;;;;;;5095274;28;20849;-65
2022/07/11 12:15:08;;;;;;;57.70;2.40;;;;;;;;;;5095463;28;20976;-65
2022/07/11 12:17:36;;;;;;;57.60;2.20;;;;;;;;;;5095058;28;20450;-65
2022/07/11 12:20:04;;;;;;;57.37;2.30;;;;;;;;;;5095290;28;20434;-65
2022/07/11 12:22:31;;;;;;;57.37;2.10;;;;;;;;;;5095436;28;20474;-64
2022/07/11 12:24:58;;;;;;;57.47;1.93;;;;;;;;;;5095349;28;20468;-64
2022/07/11 12:27:26;;;;;;;57.10;2.00;;;;;;;;;;5095111;28;20464;-64
2022/07/11 12:29:54;;;;;;;57.63;2.40;;;;;;;;;;5095159;28;20517;-64
2022/07/11 12:32:22;;;;;;;56.97;2.00;;;;;;;;;;5095638;28;20450;-64
2022/07/11 12:34:51;;;;;;;56.97;1.80;;;;;;;;;;5094935;28;20885;-64
2022/07/11 12:37:19;;;;;;;57.43;1.90;;;;;;;;;;5094736;28;20939;-64
2022/07/11 12:39:53;;;;;;;57.60;1.90;;;;;;;;;;5095056;28;20457;-64
2022/07/11 12:42:24;;;;;;;57.47;2.20;;;;;;;;;;5094869;28;20452;-64
2022/07/11 12:44:59;;;;;;;57.70;2.50;;;;;;;;;;5094781;28;20966;-65
2022/07/11 12:47:27;;;;;;;57.37;2.40;;;;;;;;;;5094826;28;20691;-65
2022/07/11 12:49:56;;;;;;;57.70;2.23;;;;;;;;;;5094881;28;20933;-65
2022/07/11 12:52:23;;;;;;;59.80;2.30;;;;;;;;;;5094610;28;20446;-64
2022/07/11 12:54:52;;;;;;;58.40;2.63;;;;;;;;;;5094594;28;20463;-64
2022/07/11 12:57:22;;;;;;;57.87;2.50;;;;;;;;;;5094328;28;20486;-64
2022/07/11 12:59:49;;;;;;;63.40;3.10;;;;;;;;;;5094806;28;20442;-64
2022/07/11 13:02:17;;;;;;;58.00;2.40;;;;;;;;;;5094428;28;20524;-65
2022/07/11 13:04:49;;;;;;;58.10;2.57;;;;;;;;;;5094360;28;21032;-64
2022/07/11 13:10:10;;;;;;;57.90;2.50;;;;;;;;;;5094292;28;20535;-64
2022/07/11 13:12:37;;;;;;;58.97;2.60;;;;;;;;;;5094287;28;20486;-64
2022/07/11 13:15:11;;;;;;;58.53;2.57;;;;;;;;;;5094423;28;20477;-64
2022/07/11 13:17:39;;;;;;;59.13;2.50;;;;;;;;;;5093654;28;20481;-64
2022/07/11 13:20:08;;;;;;;58.90;2.67;;;;;;;;;;5094182;28;20789;-64
2022/07/11 13:22:37;;;;;;;59.00;2.80;;;;;;;;;;5093967;28;20472;-64
2022/07/11 13:25:04;;;;;;;58.40;2.50;;;;;;;;;;5093919;28;21000;-64
2022/07/11 13:27:31;;;;;;;58.40;2.93;;;;;;;;;;5094011;28;20902;-64
2022/07/11 13:29:58;;;;;;;58.03;2.70;;;;;;;;;;5094019;28;20515;-64
2022/07/11 13:32:26;;;;;;;58.10;2.60;;;;;;;;;;5093851;28;20957;-64
2022/07/11 13:34:53;;;;;;;58.47;2.40;;;;;;;;;;5093623;28;20856;-64
2022/07/11 13:37:20;;;;;;;58.43;3.20;;;;;;;;;;5093563;28;20939;-64
2022/07/11 13:39:48;;;;;;;58.37;2.30;;;;;;;;;;5093868;28;20544;-64
2022/07/11 13:42:16;;;;;;;57.97;2.60;;;;;;;;;;5093781;28;20454;-64
2022/07/11 13:44:43;;;;;;;57.97;2.57;;;;;;;;;;5091638;28;20479;-64
2022/07/11 13:47:11;;;;;;;57.70;2.17;;;;;;;;;;5093303;28;20552;-64
2022/07/11 13:49:39;;;;;;;58.33;3.23;;;;;;;;;;5093186;28;20577;-65
2022/07/11 13:52:06;;;;;;;58.40;2.80;;;;;;;;;;5091188;28;20514;-65
2022/07/11 13:54:33;;;;;;;58.10;2.40;;;;;;;;;;5093049;28;20546;-65
2022/07/11 13:57:02;;;;;;;58.13;2.70;;;;;;;;;;5092879;28;20446;-65
2022/07/11 13:59:29;;;;;;;58.60;2.40;;;;;;;;;;5093023;28;20443;-65
2022/07/11 14:01:56;;;;;;;58.07;2.70;;;;;;;;;;5093070;28;20442;-65
2022/07/11 14:04:23;;;;;;;62.03;2.73;;;;;;;;;;5093294;28;20480;-65
2022/07/11 14:06:50;;;;;;;57.80;2.60;;;;;;;;;;5093068;28;20799;-65
2022/07/11 14:09:17;;;;;;;57.73;2.80;;;;;;;;;;5092817;28;20481;-65
2022/07/11 14:11:44;;;;;;;58.57;2.70;;;;;;;;;;5093237;28;20837;-65
2022/07/11 14:14:13;;;;;;;58.00;2.70;;;;;;;;;;5092840;28;20504;-65
2022/07/11 14:16:40;;;;;;;58.30;2.97;;;;;;;;;;5092767;28;20442;-65
2022/07/11 14:19:10;;;;;;;58.20;2.87;;;;;;;;;;5092781;28;20808;-65
2022/07/11 14:21:37;;;;;;;57.80;2.50;;;;;;;;;;5092929;28;20477;-65
2022/07/11 14:24:04;;;;;;;57.80;2.50;;;;;;;;;;5090037;28;20512;-65
2022/07/11 14:26:31;;;;;;;57.77;2.60;;;;;;;;;;5092733;28;20449;-65
2022/07/11 14:28:59;;;;;;;57.90;2.30;;;;;;;;;;5092267;28;20449;-65
2022/07/11 14:31:27;;;;;;;58.17;2.40;;;;;;;;;;5091606;28;20489;-65
2022/07/11 14:33:56;;;;;;;57.90;2.50;;;;;;;;;;5092264;28;20489;-65
2022/07/11 14:36:24;;;;;;;58.60;2.53;;;;;;;;;;5092645;28;20458;-65
2022/07/11 14:38:51;;;;;;;58.50;2.43;;;;;;;;;;5092229;28;20446;-65
2022/07/11 14:41:18;;;;;;;58.20;3.00;;;;;;;;;;5092485;28;20446;-65
2022/07/11 14:43:46;;;;;;;58.40;2.53;;;;;;;;;;5092577;28;20998;-65
2022/07/11 14:46:13;;;;;;;57.87;2.60;;;;;;;;;;5092527;28;20523;-65
2022/07/11 14:48:42;;;;;;;58.97;2.60;;;;;;;;;;5092322;28;20449;-65
2022/07/11 14:51:09;;;;;;;57.83;2.40;;;;;;;;;;5092270;28;20478;-65
2022/07/11 14:53:37;;;;;;;58.67;2.40;;;;;;;;;;5092145;28;20492;-65